This is the latest recevied weather packets stored in our database for station/object CA3SQH-10. If no packets are shown the sender has not sent any weather packets the latest 10 day(s).
| Time | Temp. | Humidity | Pressure | Rain* | Wind** | Luminosity | Snow |
|---|---|---|---|---|---|---|---|
| 1777778553 | 15.56° C | 48% | 939.3 hPa | - | - | - | - |
| 1777777653 | 15.56° C | 50% | 939.3 hPa | - | - | - | - |
| 1777776752 | 15.56° C | 50% | 939.2 hPa | - | - | - | - |
| 1777775851 | 15.56° C | 49% | 939 hPa | - | - | - | - |
| 1777775768 | 16.11° C | 49% | 939 hPa | - | - | - | - |
| 1777771707 | 16.67° C | 45% | 938.7 hPa | - | - | - | - |
| 1777770807 | 16.67° C | 49% | 938.9 hPa | - | - | - | - |
| 1777769906 | 16.67° C | 50% | 939 hPa | - | - | - | - |
| 1777769504 | 16.67° C | 51% | 939 hPa | - | - | - | - |
| 1777768603 | 16.67° C | 51% | 939.1 hPa | - | - | - | - |
| 1777767703 | 17.22° C | 51% | 939.1 hPa | - | - | - | - |
| 1777767168 | 17.22° C | 52% | 939.1 hPa | - | - | - | - |
| 1777766700 | 17.22° C | 54% | 939 hPa | - | - | - | - |
| 1777765799 | 17.22° C | 53% | 938.9 hPa | - | - | - | - |
| 1777764899 | 17.78° C | 53% | 938.7 hPa | - | - | - | - |
| 1777763999 | 18.33° C | 52% | 938.6 hPa | - | - | - | - |
| 1777763099 | 18.33° C | 51% | 938.4 hPa | - | - | - | - |
| 1777762199 | 18.89° C | 50% | 938.2 hPa | - | - | - | - |
| 1777761298 | 19.44° C | 48% | 937.9 hPa | - | - | - | - |
| 1777760398 | 20° C | 46% | 938 hPa | - | - | - | - |
| 1777759497 | 20.56° C | 44% | 937.9 hPa | - | - | - | - |
| 1777758698 | 21.11° C | 44% | 937.7 hPa | - | - | - | - |
| 1777757798 | 21.67° C | 42% | 937.7 hPa | - | - | - | - |
| 1777756898 | 21.67° C | 41% | 937.5 hPa | - | - | - | - |
| 1777755998 | 22.22° C | 40% | 937.5 hPa | - | - | - | - |
* Rain since midnight (hover to see other rain measurements)
** Current wind speed in m/s (hover to see current wind gust speed)